Time;durP1;ratioP1;P1;durP2;ratioP2;P2;SDS_P1;SDS_P2;PMS_P1;PMS_P2;Temp;Humidity;BMP_temperature;BMP_pressure;BME280_temperature;BME280_humidity;BME280_pressure;Samples;Min_cycle;Max_cycle;Signal;HPM_P1;HPM_P2
2023/03/24 00:01:07;;;;;;;1.73;0.63;;;19.10;66.00;;;;;;4921495;29;20048;-70
2023/03/24 00:03:35;;;;;;;1.85;1.00;;;19.10;65.90;;;;;;4936317;29;20044;-70
2023/03/24 00:06:04;;;;;;;2.15;1.02;;;19.10;65.90;;;;;;4935164;29;20060;-71
2023/03/24 00:08:35;;;;;;;1.70;0.35;;;19.10;66.00;;;;;;4936213;29;20052;-70
2023/03/24 00:11:06;;;;;;;1.45;0.85;;;19.10;66.00;;;;;;4933773;29;20055;-70
2023/03/24 00:13:37;;;;;;;1.10;0.25;;;19.10;66.00;;;;;;4934511;29;20062;-70
2023/03/24 00:16:05;;;;;;;1.52;0.70;;;19.10;66.00;;;;;;4921518;29;20055;-70
2023/03/24 00:18:32;;;;;;;1.50;0.65;;;19.10;66.00;;;;;;4921915;29;20051;-72
2023/03/24 00:20:59;;;;;;;1.38;0.30;;;19.10;66.00;;;;;;4935834;29;20052;-71
2023/03/24 00:23:31;;;;;;;1.92;0.93;;;19.10;66.00;;;;;;4936030;29;20055;-70
2023/03/24 00:26:05;;;;;;;2.25;0.65;;;19.10;66.00;;;;;;4934207;29;20048;-70
2023/03/24 00:28:33;;;;;;;2.83;0.80;;;19.10;66.00;;;;;;4935038;29;20596;-70
2023/03/24 00:31:02;;;;;;;1.50;0.77;;;19.10;66.00;;;;;;4934454;29;20062;-70
2023/03/24 00:33:30;;;;;;;2.25;0.68;;;19.10;66.10;;;;;;4935641;29;20134;-70
2023/03/24 00:35:57;;;;;;;1.85;0.85;;;19.00;66.00;;;;;;4935801;29;20101;-70
2023/03/24 00:38:25;;;;;;;2.17;0.50;;;19.00;66.00;;;;;;4936083;29;20054;-70
2023/03/24 00:40:53;;;;;;;1.85;0.70;;;19.10;66.10;;;;;;4931206;29;20055;-70
2023/03/24 00:43:21;;;;;;;2.25;0.70;;;19.00;66.00;;;;;;4935309;29;20055;-70
2023/03/24 00:45:48;;;;;;;1.80;0.20;;;19.10;66.10;;;;;;4935497;29;20366;-70
2023/03/24 00:48:18;;;;;;;1.88;0.80;;;19.10;66.10;;;;;;4935232;29;20512;-70
2023/03/24 00:50:46;;;;;;;1.98;0.80;;;19.00;66.10;;;;;;4935188;29;20048;-70
2023/03/24 00:53:15;;;;;;;1.60;0.80;;;19.10;66.10;;;;;;4933249;29;20063;-70
2023/03/24 00:55:45;;;;;;;2.15;0.63;;;19.10;66.20;;;;;;4932799;29;20115;-70
2023/03/24 00:58:17;;;;;;;;;;;19.10;66.10;;;;;;4936086;29;20051;-70
2023/03/24 01:00:46;;;;;;;2.72;0.70;;;19.10;66.10;;;;;;4935089;29;19926;-71
2023/03/24 01:03:29;;;;;;;2.13;0.20;;;19.10;66.70;;;;;;5087832;27;20495;-67
2023/03/24 01:06:01;;;;;;;1.60;0.60;;;19.00;66.00;;;;;;5087684;28;20346;-65
2023/03/24 01:08:28;;;;;;;2.42;0.93;;;19.00;66.10;;;;;;5086752;28;20131;-64
2023/03/24 01:10:56;;;;;;;2.25;0.93;;;19.00;66.10;;;;;;5070618;28;20053;-65
2023/03/24 01:13:24;;;;;;;2.45;0.70;;;19.00;66.10;;;;;;5063334;28;20088;-65
2023/03/24 01:15:52;;;;;;;2.72;0.90;;;19.00;66.20;;;;;;5046023;28;20049;-65
2023/03/24 01:18:19;;;;;;;1.95;0.70;;;19.10;66.20;;;;;;5046479;28;20059;-65
2023/03/24 01:20:49;;;;;;;2.67;0.82;;;19.00;66.20;;;;;;5047481;28;20417;-65
2023/03/24 01:23:18;;;;;;;2.63;0.70;;;19.00;66.20;;;;;;5048219;28;20056;-65
2023/03/24 01:25:47;;;;;;;1.10;0.60;;;19.00;66.20;;;;;;5066316;28;20140;-67
2023/03/24 01:28:16;;;;;;;2.03;0.80;;;19.00;66.20;;;;;;5067363;28;20055;-67
2023/03/24 01:30:43;;;;;;;1.13;0.80;;;19.00;66.20;;;;;;5066105;28;20053;-65
2023/03/24 01:33:10;;;;;;;2.30;1.08;;;19.00;66.20;;;;;;5065892;28;20049;-66
2023/03/24 01:35:37;;;;;;;1.35;0.75;;;19.00;66.20;;;;;;5066023;28;20052;-66
2023/03/24 01:38:08;;;;;;;1.08;0.22;;;19.00;66.20;;;;;;5065544;28;20048;-65
2023/03/24 01:40:37;;;;;;;2.03;0.70;;;19.00;66.20;;;;;;5063405;28;20053;-66
2023/03/24 01:43:06;;;;;;;1.88;0.90;;;19.00;66.20;;;;;;5066686;28;20049;-65
2023/03/24 01:45:54;;;;;;;2.00;1.15;;;19.00;66.20;;;;;;5065745;28;20404;-68
2023/03/24 01:48:24;;;;;;;1.88;0.70;;;19.00;66.30;;;;;;5066860;28;20061;-66
2023/03/24 01:51:02;;;;;;;1.30;0.30;;;19.00;66.30;;;;;;5066868;28;20058;-65
2023/03/24 01:53:34;;;;;;;2.38;0.77;;;18.90;66.30;;;;;;5065657;28;20539;-66
2023/03/24 01:56:03;;;;;;;1.80;0.90;;;19.00;66.30;;;;;;5066763;28;20423;-66
2023/03/24 01:58:31;;;;;;;;;;;19.00;66.30;;;;;;5065881;28;20397;-66
2023/03/24 02:00:58;;;;;;;1.58;0.95;;;19.00;66.30;;;;;;5066294;28;19920;-66
2023/03/24 02:03:28;;;;;;;1.77;0.80;;;19.00;66.20;;;;;;5066420;28;20053;-66
2023/03/24 02:05:57;;;;;;;2.35;0.95;;;18.90;66.20;;;;;;5066646;28;20056;-66
2023/03/24 02:08:28;;;;;;;1.95;0.80;;;18.90;66.30;;;;;;5062962;28;20049;-66
2023/03/24 02:10:57;;;;;;;1.55;0.90;;;18.90;66.30;;;;;;5064912;28;20048;-66
2023/03/24 02:13:25;;;;;;;1.55;1.05;;;18.90;66.30;;;;;;5045267;28;20537;-66
2023/03/24 02:16:04;;;;;;;2.13;1.13;;;18.90;66.30;;;;;;5032068;28;20877;-66
2023/03/24 02:18:43;;;;;;;1.20;0.30;;;18.90;66.30;;;;;;5031616;28;20236;-65
2023/03/24 02:22:04;;;;;;;1.38;0.57;;;18.90;66.30;;;;;;5032856;28;20496;-65
2023/03/24 02:25:03;;;;;;;1.85;1.10;;;18.90;66.40;;;;;;5026077;28;20045;-66
2023/03/24 02:27:48;;;;;;;1.38;0.20;;;18.90;66.30;;;;;;5030229;28;20203;-65
2023/03/24 02:30:34;;;;;;;1.50;1.10;;;18.90;66.40;;;;;;5042165;28;20052;-65
2023/03/24 02:33:32;;;;;;;1.35;0.75;;;18.90;66.40;;;;;;5051645;28;20474;-65
2023/03/24 02:36:31;;;;;;;1.73;0.70;;;18.90;66.40;;;;;;5053036;28;20424;-66
2023/03/24 02:39:30;;;;;;;1.48;0.50;;;18.90;66.40;;;;;;5042885;28;20457;-66
2023/03/24 02:42:05;;;;;;;2.33;0.68;;;18.90;66.40;;;;;;5051216;28;20049;-66
2023/03/24 02:44:40;;;;;;;1.60;0.73;;;18.90;66.40;;;;;;5052591;28;20045;-65
2023/03/24 02:47:15;;;;;;;1.58;0.20;;;18.90;66.40;;;;;;5050990;28;20053;-65
2023/03/24 02:49:47;;;;;;;1.83;0.90;;;18.90;66.40;;;;;;5050395;28;20052;-65
2023/03/24 02:52:20;;;;;;;1.88;0.98;;;18.90;66.50;;;;;;5032180;28;20056;-65
2023/03/24 02:54:56;;;;;;;1.10;0.60;;;18.90;66.40;;;;;;5049345;28;20053;-66
2023/03/24 02:57:30;;;;;;;1.60;0.70;;;18.80;66.40;;;;;;5052088;28;20045;-65
2023/03/24 03:00:00;;;;;;;1.45;0.70;;;18.80;66.50;;;;;;5050901;28;20049;-66
2023/03/24 03:02:31;;;;;;;1.30;0.20;;;18.90;66.50;;;;;;5031927;28;20053;-66
2023/03/24 03:05:04;;;;;;;1.52;0.75;;;18.90;66.60;;;;;;5032060;28;20049;-65
2023/03/24 03:07:36;;;;;;;1.40;0.70;;;18.90;66.50;;;;;;5032369;28;20042;-65
2023/03/24 03:10:12;;;;;;;2.45;0.73;;;18.80;66.50;;;;;;5032128;28;20046;-65
2023/03/24 03:12:41;;;;;;;1.35;0.73;;;18.90;66.60;;;;;;5031645;28;20641;-65
2023/03/24 03:15:12;;;;;;;1.42;0.70;;;18.80;66.50;;;;;;5034158;28;20409;-65
2023/03/24 03:17:46;;;;;;;0.93;0.22;;;18.90;66.60;;;;;;5030548;28;20049;-65
2023/03/24 03:20:17;;;;;;;1.52;0.60;;;18.80;66.50;;;;;;5031876;28;20053;-65
2023/03/24 03:22:48;;;;;;;2.00;0.75;;;18.90;66.60;;;;;;5031847;28;20049;-66
2023/03/24 03:25:23;;;;;;;1.80;0.90;;;18.80;66.50;;;;;;5049705;28;20056;-66
2023/03/24 03:27:53;;;;;;;1.48;0.50;;;18.90;66.60;;;;;;5051642;28;20769;-66
2023/03/24 03:30:24;;;;;;;1.27;0.77;;;18.80;66.60;;;;;;5050311;28;20049;-65
2023/03/24 03:32:56;;;;;;;1.40;0.80;;;18.80;66.60;;;;;;5050502;28;20063;-65
2023/03/24 03:35:29;;;;;;;1.38;0.60;;;18.80;66.60;;;;;;5051497;28;20053;-66
2023/03/24 03:38:06;;;;;;;1.38;0.73;;;18.80;66.60;;;;;;5048074;28;20053;-66
2023/03/24 03:40:38;;;;;;;1.90;0.90;;;18.80;66.60;;;;;;5051586;28;20049;-65
2023/03/24 03:43:05;;;;;;;2.35;0.77;;;18.80;66.70;;;;;;5051282;28;20041;-65
2023/03/24 03:45:34;;;;;;;1.60;0.82;;;18.80;66.60;;;;;;5050295;28;20064;-65
2023/03/24 03:48:01;;;;;;;1.52;0.77;;;18.80;66.70;;;;;;5050832;28;20049;-66
2023/03/24 03:50:28;;;;;;;1.58;0.95;;;18.80;66.70;;;;;;5050423;28;20049;-66
2023/03/24 03:52:56;;;;;;;1.70;0.70;;;18.80;66.70;;;;;;5050523;28;20044;-66
2023/03/24 03:55:23;;;;;;;2.50;0.70;;;18.80;66.70;;;;;;5051367;28;20493;-66
2023/03/24 03:57:52;;;;;;;1.30;0.20;;;18.80;66.70;;;;;;5051311;28;20112;-66
2023/03/24 04:00:21;;;;;;;1.60;0.80;;;18.80;66.80;;;;;;5049902;28;20044;-65
2023/03/24 04:03:31;;;;;;;1.88;0.70;;;18.80;66.80;;;;;;5050870;28;20107;-66
2023/03/24 04:06:03;;;;;;;1.42;0.75;;;18.80;66.80;;;;;;5050980;28;20060;-64
2023/03/24 04:08:40;;;;;;;1.75;0.82;;;18.80;66.70;;;;;;5047668;28;20128;-65
2023/03/24 04:11:42;;;;;;;1.17;0.60;;;18.80;66.80;;;;;;5033969;28;20046;-65
2023/03/24 04:14:31;;;;;;;1.20;0.70;;;18.80;66.80;;;;;;5005663;28;20046;-65
2023/03/24 04:17:09;;;;;;;1.65;0.82;;;18.80;66.80;;;;;;5028345;28;20471;-65
2023/03/24 04:19:49;;;;;;;1.77;0.50;;;18.80;66.90;;;;;;5031003;28;20387;-65
2023/03/24 04:22:27;;;;;;;1.15;0.63;;;18.80;66.90;;;;;;5034460;28;20049;-65
2023/03/24 04:25:00;;;;;;;1.05;0.40;;;18.80;66.90;;;;;;5050882;28;20355;-65
2023/03/24 04:27:37;;;;;;;1.95;0.85;;;18.80;67.00;;;;;;5050865;28;20063;-65
2023/03/24 04:30:14;;;;;;;1.00;0.10;;;18.80;67.00;;;;;;5049630;28;20535;-66
2023/03/24 04:32:47;;;;;;;1.60;0.68;;;18.70;66.90;;;;;;5049475;28;20052;-65
2023/03/24 04:35:30;;;;;;;1.70;0.90;;;18.80;67.00;;;;;;5049546;28;20061;-65
2023/03/24 04:38:01;;;;;;;1.48;0.65;;;18.70;67.00;;;;;;5048386;28;20045;-65
2023/03/24 04:40:31;;;;;;;0.80;0.10;;;18.70;67.00;;;;;;5050594;28;20053;-66
2023/03/24 04:43:02;;;;;;;1.33;0.15;;;18.70;66.90;;;;;;5049769;28;20071;-65
2023/03/24 04:45:32;;;;;;;1.13;0.70;;;18.70;67.00;;;;;;5050314;28;20045;-66
2023/03/24 04:48:00;;;;;;;;;;;18.70;67.00;;;;;;5050776;28;20557;-66
2023/03/24 04:50:30;;;;;;;0.88;0.10;;;18.70;67.00;;;;;;5047338;28;19921;-66
2023/03/24 04:52:59;;;;;;;1.45;0.70;;;18.70;67.50;;;;;;5049188;28;20126;-66
2023/03/24 04:55:50;;;;;;;1.48;0.85;;;18.70;67.00;;;;;;5049143;28;20411;-66
2023/03/24 04:58:18;;;;;;;0.90;0.10;;;18.70;67.00;;;;;;5038433;28;20056;-66
2023/03/24 05:00:47;;;;;;;1.27;0.63;;;18.70;67.00;;;;;;5050413;28;20386;-65
2023/03/24 05:03:14;;;;;;;0.85;0.20;;;18.70;67.00;;;;;;5048584;28;20049;-66
2023/03/24 05:05:42;;;;;;;2.67;0.90;;;18.70;67.00;;;;;;5039687;28;20405;-65
2023/03/24 05:08:10;;;;;;;2.22;0.75;;;18.70;67.00;;;;;;5030156;28;20046;-66
2023/03/24 05:10:37;;;;;;;3.15;0.22;;;18.70;67.10;;;;;;5030158;28;20552;-66
2023/03/24 05:13:06;;;;;;;1.67;0.60;;;18.70;67.00;;;;;;5028675;28;20049;-66
2023/03/24 05:15:33;;;;;;;2.05;0.98;;;18.70;66.90;;;;;;5029160;28;20099;-66
2023/03/24 05:18:02;;;;;;;0.77;0.15;;;18.80;66.90;;;;;;5029455;28;20448;-66
2023/03/24 05:20:29;;;;;;;1.25;0.70;;;18.80;66.80;;;;;;5039098;28;20061;-65
2023/03/24 05:22:56;;;;;;;0.90;0.40;;;18.90;66.70;;;;;;5050044;28;20110;-66
2023/03/24 05:25:23;;;;;;;0.90;0.10;;;18.90;66.70;;;;;;5049941;28;20068;-65
2023/03/24 05:27:50;;;;;;;1.13;0.15;;;19.00;66.50;;;;;;5050007;28;20068;-66
2023/03/24 05:30:19;;;;;;;1.48;0.70;;;19.10;66.50;;;;;;5049781;28;20397;-66
2023/03/24 05:32:46;;;;;;;2.22;0.57;;;19.10;66.30;;;;;;5049671;28;20485;-66
2023/03/24 05:35:14;;;;;;;1.02;0.10;;;19.20;66.20;;;;;;5048677;28;20053;-65
2023/03/24 05:37:41;;;;;;;2.10;0.70;;;19.20;66.10;;;;;;5048369;28;20049;-65
2023/03/24 05:40:09;;;;;;;0.70;0.10;;;19.40;66.00;;;;;;5049728;28;20484;-65
2023/03/24 05:42:36;;;;;;;2.20;0.68;;;19.50;65.90;;;;;;5049707;28;20045;-66
2023/03/24 05:45:04;;;;;;;1.58;0.60;;;19.50;65.70;;;;;;5049668;28;20479;-65
2023/03/24 05:47:31;;;;;;;1.23;0.60;;;19.60;65.60;;;;;;5048414;28;20045;-66
2023/03/24 05:49:58;;;;;;;1.48;0.70;;;19.70;65.50;;;;;;5050737;28;20521;-66
2023/03/24 05:52:26;;;;;;;1.58;0.60;;;19.70;65.40;;;;;;5053760;28;20064;-66
2023/03/24 05:54:53;;;;;;;1.35;0.50;;;19.70;65.40;;;;;;5053637;28;20435;-66
2023/03/24 05:57:20;;;;;;;1.30;0.68;;;19.70;65.30;;;;;;5053409;28;20555;-66
2023/03/24 05:59:48;;;;;;;2.53;0.20;;;19.70;65.30;;;;;;5053411;28;20091;-66
2023/03/24 06:02:15;;;;;;;1.52;0.77;;;19.70;65.30;;;;;;5051710;28;20053;-65
2023/03/24 06:04:45;;;;;;;1.92;0.47;;;19.70;65.30;;;;;;5052301;28;20053;-65
2023/03/24 06:07:13;;;;;;;2.65;0.65;;;19.70;65.40;;;;;;5045016;28;20053;-66
2023/03/24 06:09:45;;;;;;;1.23;0.13;;;19.70;65.40;;;;;;5065474;28;20064;-65
2023/03/24 06:12:14;;;;;;;1.10;0.68;;;19.60;65.40;;;;;;5033058;28;20064;-66
2023/03/24 06:14:41;;;;;;;0.93;0.17;;;19.60;65.40;;;;;;5033198;28;20140;-66
2023/03/24 06:17:13;;;;;;;1.50;0.82;;;19.60;65.40;;;;;;5032177;28;20049;-65
2023/03/24 06:19:48;;;;;;;1.88;0.10;;;19.70;65.40;;;;;;5040817;28;20049;-65
2023/03/24 06:22:16;;;;;;;1.42;0.10;;;19.70;65.30;;;;;;5053234;28;20041;-66
2023/03/24 06:24:45;;;;;;;0.93;0.52;;;19.70;65.40;;;;;;5052936;28;20069;-66
2023/03/24 06:27:13;;;;;;;1.63;0.10;;;19.60;65.40;;;;;;5053109;28;20041;-66
2023/03/24 06:29:42;;;;;;;2.22;0.10;;;19.60;65.40;;;;;;5052582;28;20061;-65
2023/03/24 06:32:09;;;;;;;1.88;0.85;;;19.60;65.50;;;;;;5052787;28;20102;-65
2023/03/24 06:34:37;;;;;;;2.17;0.50;;;19.50;65.50;;;;;;5051578;28;20110;-66
2023/03/24 06:37:04;;;;;;;1.75;0.82;;;19.50;65.50;;;;;;5049767;28;20126;-66
2023/03/24 06:39:32;;;;;;;2.90;0.68;;;19.50;65.60;;;;;;5051805;28;20045;-66
2023/03/24 06:42:00;;;;;;;2.05;0.60;;;19.40;65.60;;;;;;5052298;28;20049;-66
2023/03/24 06:44:27;;;;;;;1.98;0.30;;;19.40;66.20;;;;;;5052768;28;20053;-66
2023/03/24 06:46:54;;;;;;;1.30;0.75;;;19.40;65.70;;;;;;5052383;28;20056;-66
2023/03/24 06:49:21;;;;;;;2.20;0.73;;;19.40;65.70;;;;;;5051096;28;20055;-66
2023/03/24 06:51:48;;;;;;;1.50;0.32;;;19.40;65.70;;;;;;5051216;28;20481;-66
2023/03/24 06:54:15;;;;;;;1.48;0.20;;;19.30;65.70;;;;;;5048620;28;20049;-66
2023/03/24 06:56:42;;;;;;;2.13;0.80;;;19.30;65.80;;;;;;5052130;28;20052;-66
2023/03/24 06:59:11;;;;;;;1.75;0.60;;;19.30;66.40;;;;;;5051800;28;20516;-66
2023/03/24 07:01:38;;;;;;;2.08;0.70;;;19.20;65.70;;;;;;5050084;28;20053;-66
2023/03/24 07:04:06;;;;;;;2.20;0.52;;;19.20;65.70;;;;;;5052172;28;20049;-66
2023/03/24 07:06:33;;;;;;;1.67;0.95;;;19.30;65.80;;;;;;5038733;28;20053;-66
2023/03/24 07:09:01;;;;;;;3.58;0.43;;;19.20;65.80;;;;;;5030943;28;20060;-66
2023/03/24 07:11:28;;;;;;;2.20;1.10;;;19.20;65.80;;;;;;5030662;28;20058;-66
2023/03/24 07:13:56;;;;;;;1.88;0.50;;;19.20;65.80;;;;;;5031131;28;20060;-66
2023/03/24 07:16:25;;;;;;;2.15;0.70;;;19.20;65.90;;;;;;5040114;28;20052;-65
2023/03/24 07:18:51;;;;;;;2.45;0.28;;;19.20;65.90;;;;;;5050672;28;20122;-66
2023/03/24 07:21:18;;;;;;;1.77;0.20;;;19.20;65.90;;;;;;5051936;28;20052;-67
2023/03/24 07:23:45;;;;;;;2.70;1.30;;;19.10;65.80;;;;;;5042970;28;20054;-66
2023/03/24 07:26:12;;;;;;;1.77;0.77;;;19.10;65.90;;;;;;5031788;28;20422;-66
2023/03/24 07:28:39;;;;;;;1.83;0.90;;;19.10;65.90;;;;;;5031704;28;20053;-67
2023/03/24 07:31:09;;;;;;;1.48;0.70;;;19.10;65.90;;;;;;5040083;28;20063;-66
2023/03/24 07:33:38;;;;;;;2.17;0.82;;;19.10;65.90;;;;;;5051869;28;20060;-66
2023/03/24 07:36:06;;;;;;;2.00;0.80;;;19.10;65.90;;;;;;5052014;28;20045;-66
2023/03/24 07:38:34;;;;;;;3.38;0.20;;;19.10;65.90;;;;;;5050379;28;20060;-66
2023/03/24 07:41:01;;;;;;;3.72;0.20;;;19.10;65.90;;;;;;5050266;28;20057;-66
2023/03/24 07:43:28;;;;;;;1.30;0.70;;;19.10;66.00;;;;;;5049866;28;20048;-66
2023/03/24 07:45:56;;;;;;;2.17;0.70;;;19.10;65.90;;;;;;5049564;28;20055;-66
2023/03/24 07:48:23;;;;;;;3.03;0.73;;;19.10;65.90;;;;;;5050269;28;20079;-66
2023/03/24 07:50:52;;;;;;;2.65;0.95;;;19.00;65.90;;;;;;5050300;28;20053;-66
2023/03/24 07:53:19;;;;;;;3.70;0.75;;;19.00;65.90;;;;;;5051348;28;20053;-66
2023/03/24 07:55:46;;;;;;;1.70;0.85;;;19.00;65.90;;;;;;5049808;28;20041;-66
2023/03/24 07:58:13;;;;;;;3.10;1.10;;;19.00;65.90;;;;;;5051155;28;20426;-67
2023/03/24 08:00:41;;;;;;;1.88;0.20;;;19.00;65.90;;;;;;5051234;28;20049;-66
2023/03/24 08:03:12;;;;;;;2.55;1.42;;;19.10;65.90;;;;;;5046698;28;20490;-66
2023/03/24 08:05:40;;;;;;;2.88;0.82;;;19.00;65.90;;;;;;5034876;28;20119;-67
2023/03/24 08:08:08;;;;;;;2.20;0.75;;;19.00;65.90;;;;;;5031474;28;20045;-66
2023/03/24 08:10:36;;;;;;;2.55;0.80;;;19.00;65.90;;;;;;5029616;28;20058;-66
2023/03/24 08:13:03;;;;;;;1.77;0.88;;;19.00;65.90;;;;;;5037876;28;20045;-67
2023/03/24 08:15:30;;;;;;;2.03;0.90;;;19.00;65.90;;;;;;5050861;28;20053;-67
2023/03/24 08:17:57;;;;;;;2.60;0.75;;;19.00;65.90;;;;;;5051005;28;20088;-67
2023/03/24 08:20:25;;;;;;;2.45;0.70;;;19.00;65.90;;;;;;5049280;28;20071;-67
2023/03/24 08:22:53;;;;;;;2.17;0.98;;;19.00;65.90;;;;;;5049871;28;20049;-66
2023/03/24 08:25:23;;;;;;;2.17;0.70;;;19.00;65.90;;;;;;5050680;28;20055;-66
2023/03/24 08:27:51;;;;;;;3.47;1.00;;;19.00;65.90;;;;;;5048430;28;20053;-67
2023/03/24 08:30:20;;;;;;;2.30;0.30;;;19.00;65.90;;;;;;5050723;28;20615;-66
2023/03/24 08:32:48;;;;;;;2.70;0.68;;;19.00;65.90;;;;;;5050011;28;20045;-67
2023/03/24 08:35:18;;;;;;;3.22;0.25;;;19.00;65.90;;;;;;5050673;28;20078;-66
2023/03/24 08:37:46;;;;;;;2.53;0.68;;;19.00;65.90;;;;;;5049241;28;20567;-66
2023/03/24 08:40:17;;;;;;;1.85;0.60;;;19.00;66.50;;;;;;5050172;28;20053;-66
2023/03/24 08:42:48;;;;;;;1.38;0.68;;;19.00;65.90;;;;;;5050866;28;20449;-66
2023/03/24 08:45:15;;;;;;;2.65;0.73;;;19.00;65.90;;;;;;5049137;28;20053;-67
2023/03/24 08:47:42;;;;;;;3.17;1.25;;;19.00;65.90;;;;;;5047801;28;20048;-66
2023/03/24 08:50:10;;;;;;;2.45;0.80;;;19.00;65.90;;;;;;5049147;28;20482;-66
2023/03/24 08:52:37;;;;;;;3.33;0.30;;;19.00;65.90;;;;;;5050383;28;20080;-67
2023/03/24 08:55:06;;;;;;;1.95;0.60;;;19.00;65.90;;;;;;5050379;28;20048;-66
2023/03/24 08:57:33;;;;;;;2.55;0.40;;;19.00;65.90;;;;;;5049941;28;20049;-66
2023/03/24 09:00:03;;;;;;;2.90;0.90;;;19.00;65.90;;;;;;5049164;28;20045;-67
2023/03/24 09:02:30;;;;;;;3.17;0.70;;;19.00;65.90;;;;;;5048141;28;20049;-66
2023/03/24 09:04:58;;;;;;;2.40;0.65;;;19.00;65.90;;;;;;5062191;28;20143;-67
2023/03/24 09:07:25;;;;;;;2.47;0.47;;;19.00;65.90;;;;;;5029977;28;20446;-66
2023/03/24 09:09:52;;;;;;;4.82;0.43;;;19.00;65.90;;;;;;5062276;28;20057;-67
2023/03/24 09:12:19;;;;;;;3.38;1.35;;;19.00;65.80;;;;;;5029701;28;20053;-67
2023/03/24 09:14:48;;;;;;;2.97;0.82;;;19.00;65.80;;;;;;5047627;28;20080;-67
2023/03/24 09:17:17;;;;;;;;;;;19.00;65.80;;;;;;5050596;28;20056;-67
2023/03/24 09:19:46;;;;;;;3.13;0.82;;;19.00;65.80;;;;;;5049907;28;20392;-66
2023/03/24 09:22:13;;;;;;;2.63;0.98;;;19.00;65.70;;;;;;5048319;28;20063;-67
2023/03/24 09:24:40;;;;;;;3.70;0.95;;;19.00;65.70;;;;;;5052765;28;20055;-67
2023/03/24 09:27:07;;;;;;;2.67;1.00;;;19.00;65.70;;;;;;5053866;28;20072;-67
2023/03/24 09:29:34;;;;;;;3.22;0.90;;;19.00;65.80;;;;;;5051648;28;20060;-67
2023/03/24 09:32:01;;;;;;;3.45;0.75;;;19.00;65.70;;;;;;5052647;28;20053;-65
2023/03/24 09:34:31;;;;;;;3.33;1.83;;;19.00;65.70;;;;;;5053670;28;20052;-66
2023/03/24 09:36:58;;;;;;;4.70;0.80;;;19.00;65.70;;;;;;5052266;28;20055;-66
2023/03/24 09:39:25;;;;;;;3.63;1.30;;;19.00;65.70;;;;;;5052118;28;20052;-66
2023/03/24 09:41:52;;;;;;;4.28;1.10;;;19.00;65.70;;;;;;5053160;28;20395;-66
2023/03/24 09:44:27;;;;;;;4.60;1.17;;;19.00;65.70;;;;;;5052354;28;20049;-66
2023/03/24 09:46:57;;;;;;;4.25;1.00;;;19.00;65.60;;;;;;5051575;28;20052;-67
2023/03/24 09:49:31;;;;;;;5.00;0.30;;;19.00;65.60;;;;;;5046213;28;20084;-66
2023/03/24 09:52:04;;;;;;;3.13;1.10;;;19.00;65.60;;;;;;5053193;28;20057;-66
2023/03/24 09:54:41;;;;;;;2.17;0.77;;;19.00;65.60;;;;;;5053691;28;20120;-66
2023/03/24 09:57:16;;;;;;;3.35;0.38;;;19.00;65.50;;;;;;5053383;28;20068;-66
2023/03/24 09:59:43;;;;;;;4.55;0.98;;;19.00;65.40;;;;;;5053323;28;20056;-66
2023/03/24 10:02:12;;;;;;;2.70;1.15;;;19.10;65.40;;;;;;5044431;28;20049;-66
2023/03/24 10:04:41;;;;;;;4.68;1.02;;;19.10;65.30;;;;;;5044055;28;20367;-66
2023/03/24 10:07:15;;;;;;;3.80;1.27;;;19.20;65.40;;;;;;5053309;28;20044;-66
2023/03/24 10:09:46;;;;;;;4.82;0.63;;;19.20;65.30;;;;;;5051875;28;20049;-65
2023/03/24 10:12:26;;;;;;;3.72;0.73;;;19.20;65.30;;;;;;5052923;28;20049;-67
2023/03/24 10:15:04;;;;;;;4.50;1.15;;;19.20;65.30;;;;;;5051911;28;20477;-66
2023/03/24 10:17:40;;;;;;;2.63;0.32;;;19.20;65.30;;;;;;5048243;28;20181;-66
2023/03/24 10:20:21;;;;;;;6.50;1.23;;;19.30;65.30;;;;;;5053241;28;20143;-67
2023/03/24 10:22:57;;;;;;;4.55;1.08;;;19.20;65.20;;;;;;5051471;28;20480;-66
2023/03/24 10:25:30;;;;;;;4.22;1.73;;;19.20;65.20;;;;;;5051475;28;20053;-66
2023/03/24 10:28:00;;;;;;;4.75;1.30;;;19.20;65.20;;;;;;5050710;28;20414;-66
2023/03/24 10:30:30;;;;;;;4.95;1.05;;;19.20;65.10;;;;;;5052801;28;20045;-66
2023/03/24 10:32:57;;;;;;;3.67;1.00;;;19.30;65.10;;;;;;5052596;28;20114;-66
2023/03/24 10:35:29;;;;;;;4.97;1.15;;;19.30;65.00;;;;;;5052126;28;20080;-66
2023/03/24 10:37:59;;;;;;;4.10;1.27;;;19.40;65.10;;;;;;5051284;28;20064;-67
2023/03/24 10:40:29;;;;;;;5.20;1.08;;;19.40;65.10;;;;;;5051817;28;20535;-66
2023/03/24 10:42:58;;;;;;;2.67;0.80;;;19.40;65.00;;;;;;5052569;28;20429;-66
2023/03/24 10:45:28;;;;;;;3.92;1.00;;;19.50;64.90;;;;;;5052358;28;20405;-66
2023/03/24 10:47:59;;;;;;;4.63;1.30;;;19.50;64.80;;;;;;5049924;28;20053;-67
2023/03/24 10:50:30;;;;;;;3.05;1.15;;;19.60;64.80;;;;;;5045466;28;20449;-66
2023/03/24 10:52:57;;;;;;;5.03;1.17;;;19.70;64.80;;;;;;5051086;28;20052;-66
2023/03/24 10:55:31;;;;;;;2.58;0.40;;;19.70;64.70;;;;;;5051229;28;20064;-66
2023/03/24 10:58:00;;;;;;;3.35;1.30;;;19.60;64.70;;;;;;5052192;28;20044;-66
2023/03/24 11:00:30;;;;;;;3.53;0.85;;;19.70;64.80;;;;;;5048291;28;20053;-66
2023/03/24 11:03:00;;;;;;;3.53;1.00;;;19.60;64.70;;;;;;5049437;28;20415;-66
2023/03/24 11:05:33;;;;;;;3.70;0.40;;;19.60;65.40;;;;;;5052077;28;20048;-66
2023/03/24 11:08:15;;;;;;;5.28;1.25;;;19.60;64.80;;;;;;5052057;28;20120;-66
2023/03/24 11:10:42;;;;;;;3.88;1.15;;;19.60;64.80;;;;;;5050514;28;20144;-65
2023/03/24 11:13:18;;;;;;;4.00;0.50;;;19.60;64.90;;;;;;5051510;28;20053;-66
2023/03/24 11:16:04;;;;;;;4.38;1.20;;;19.60;64.80;;;;;;5051221;28;20171;-67
2023/03/24 11:18:32;;;;;;;3.40;1.13;;;19.60;64.80;;;;;;5050714;28;20106;-66
2023/03/24 11:21:03;;;;;;;3.13;1.10;;;19.60;64.80;;;;;;5051666;28;20049;-66
2023/03/24 11:23:32;;;;;;;4.82;1.35;;;19.50;64.80;;;;;;5051366;28;20092;-66
2023/03/24 11:26:07;;;;;;;4.60;1.17;;;19.50;64.70;;;;;;5051878;28;20498;-66
2023/03/24 11:28:39;;;;;;;2.75;1.42;;;19.50;64.70;;;;;;5051811;28;20048;-66
2023/03/24 11:31:08;;;;;;;4.57;1.45;;;19.60;64.90;;;;;;5048506;28;20049;-66
2023/03/24 11:33:45;;;;;;;4.63;1.33;;;19.60;64.70;;;;;;5051512;28;20045;-67
2023/03/24 11:36:41;;;;;;;4.82;1.52;;;19.60;64.70;;;;;;5051724;28;20056;-66
2023/03/24 11:39:14;;;;;;;5.13;0.98;;;19.50;64.70;;;;;;5051470;28;20515;-66
2023/03/24 11:41:44;;;;;;;2.22;0.28;;;19.60;64.70;;;;;;5049968;28;20055;-66
2023/03/24 11:44:20;;;;;;;2.55;0.38;;;19.60;64.60;;;;;;5051305;28;20478;-66
2023/03/24 11:46:51;;;;;;;4.40;1.40;;;19.60;64.60;;;;;;5047336;28;20057;-66
2023/03/24 11:49:22;;;;;;;3.95;0.90;;;19.70;64.50;;;;;;5047972;28;20049;-66
2023/03/24 11:51:54;;;;;;;3.70;0.70;;;19.70;64.50;;;;;;5049354;28;20080;-65
2023/03/24 11:54:26;;;;;;;4.10;1.20;;;19.80;64.50;;;;;;5051176;28;20056;-66
2023/03/24 11:56:56;;;;;;;3.72;1.00;;;19.90;64.40;;;;;;5041644;28;20506;-66
2023/03/24 11:59:29;;;;;;;;;;;19.90;64.40;;;;;;5030173;28;20056;-66
2023/03/24 12:02:10;;;;;;;2.28;0.80;;;19.90;64.40;;;;;;5030839;28;20054;-67
2023/03/24 12:04:56;;;;;;;3.03;0.80;;;20.00;64.30;;;;;;5030778;28;20045;-66
2023/03/24 12:07:42;;;;;;;3.38;1.08;;;20.00;64.20;;;;;;5031053;28;20053;-66
2023/03/24 12:10:20;;;;;;;3.58;1.23;;;20.10;64.20;;;;;;5031129;28;20046;-67
2023/03/24 12:12:57;;;;;;;4.47;0.98;;;20.10;64.10;;;;;;5030706;28;20049;-66
2023/03/24 12:15:40;;;;;;;4.22;1.10;;;20.20;64.10;;;;;;5030621;28;20045;-66
2023/03/24 12:18:33;;;;;;;3.33;1.13;;;20.20;64.00;;;;;;5030604;28;20132;-68
2023/03/24 12:21:08;;;;;;;3.67;1.38;;;20.20;64.00;;;;;;5043402;28;20048;-66
2023/03/24 12:23:43;;;;;;;3.72;0.77;;;20.20;64.00;;;;;;5049457;28;20053;-66
2023/03/24 12:26:17;;;;;;;3.83;0.52;;;20.30;64.00;;;;;;5050497;28;20049;-66
2023/03/24 12:28:54;;;;;;;3.67;1.00;;;20.30;63.90;;;;;;5049396;28;20060;-66
2023/03/24 12:31:46;;;;;;;3.22;1.25;;;20.40;64.00;;;;;;5049160;28;20482;-66
2023/03/24 12:34:35;;;;;;;4.70;1.08;;;20.40;63.90;;;;;;5048281;28;20053;-67
2023/03/24 12:37:07;;;;;;;4.05;1.23;;;20.40;63.90;;;;;;5030577;28;20057;-68
2023/03/24 12:39:45;;;;;;;3.33;1.00;;;20.40;63.90;;;;;;5030597;28;20045;-67
2023/03/24 12:42:13;;;;;;;5.03;1.30;;;20.40;63.90;;;;;;5029168;28;20123;-66
2023/03/24 12:45:04;;;;;;;3.63;1.30;;;20.40;63.90;;;;;;5029022;28;20053;-67
2023/03/24 12:47:53;;;;;;;3.47;0.90;;;20.40;63.90;;;;;;5021884;28;20505;-67
2023/03/24 12:50:33;;;;;;;4.28;1.20;;;20.40;64.00;;;;;;5046064;28;20049;-67
2023/03/24 12:53:15;;;;;;;3.70;0.68;;;20.40;64.00;;;;;;5048922;28;20432;-66
2023/03/24 12:55:45;;;;;;;;;;;20.40;64.00;;;;;;5050887;28;20041;-67
2023/03/24 12:58:19;;;;;;;3.05;1.00;;;20.40;64.10;;;;;;5045412;28;20182;-67
2023/03/24 13:01:00;;;;;;;2.25;0.52;;;20.30;64.00;;;;;;5028998;28;20064;-66
2023/03/24 13:03:30;;;;;;;4.22;1.48;;;20.30;64.00;;;;;;5029757;28;20073;-66
2023/03/24 13:06:04;;;;;;;3.08;1.00;;;20.30;64.10;;;;;;5049823;28;20060;-67
2023/03/24 13:08:31;;;;;;;4.50;1.13;;;20.30;64.10;;;;;;5050303;28;20045;-67
2023/03/24 13:11:06;;;;;;;3.05;0.40;;;20.20;64.10;;;;;;5049953;28;20477;-66